Terminal Aerodrome Forecast
Issued by NWS

Home | Current Version | Previous Version | Text Only | Print | Product List | Glossary Off
Versions: 1 2 3 4 5 6 7 8 9 10 11 12 13 14 15 16

864
FTUS43 KMPX 200520
TAFAXN
TAF
KAXN 200520Z 2006/2106 24004KT P6SM VCSH BKN100
     FM200700 25005KT P6SM VCTS BKN070CB
     FM200900 27006KT P6SM VCSH BKN070
     FM201100 32008KT P6SM FEW250=

USA.gov is the U.S. government's official web portal to all federal, state and local government web resources and services.